MET'MAP v2.0
soon released !

Expected late october,
this new version will be
more efficient, smarter,
and hosted on a brand new
server x3 powerfull...
...and still free !


Not compatible ?
Try the mobile version !

LOG IN : | Subscribe | Disclaimer | Who is Orbifly ? |
ICAO code :
Legend : VFR Marginal VFR IFR Intensive IFR Very Intensive IFR
Visi :
Ceiling :
>= 8 km
>= 3000ft
5 to 8 km
1000 to 3000 ft
1500m to 5 km
500 to 1000 ft
800 to 1500m
200 to 500 ft
< 800m
< 200 ft

METAR - LEAM Almeria - 08 Apr 2020 01:59 UTC - Data Source NOAA   


- Airport Elevation : 70 ft
- IATA code : LEI
- No reported NOTAMs.


LEAM - Almeria

Latest METAR recorded : 2015/08/11 08:00 LEAM 110800Z 16005KT 130V190 CAVOK 29/25 Q1013
TAF TAF LEAM
Valid from the 07 at 21:00 until the 08 at 21:00 UTC


072000Z 0721/0821 08010KT CAVOK TX23/0814Z TN12/0806Z
BECMG 0721/0723 35006KT
BECMG 0808/0811 08014KT
PROB40
TEMPO 0810/0819 08016G26KT
BECMG 0819/0821 06004KT

Source NOAA


MET'MAP, your aeronautical weather chart ! - Copyright ORBIFLY December 2007

Programming & Development : Alexandra Zaïnal
Co-Developer : Marc-Olivier Méhu
Technical & hardware support : Manuel Goepfert
Concept & Financing : Baudouin d'Aumeries